Time;durP1;ratioP1;P1;durP2;ratioP2;P2;SDS_P1;SDS_P2;PMS_P1;PMS_P2;Temp;Humidity;BMP_temperature;BMP_pressure;BME280_temperature;BME280_humidity;BME280_pressure;Samples;Min_cycle;Max_cycle;Signal;HPM_P1;HPM_P2
2021/03/14 00:00:49;;;;;;;1.02;0.77;;;23.50;44.30;;;;;;5070070;28;20045;-41
2021/03/14 00:03:18;;;;;;;1.10;0.68;;;23.40;44.20;;;;;;5071388;28;20436;-42
2021/03/14 00:05:47;;;;;;;0.68;0.50;;;23.50;44.30;;;;;;5073755;28;20091;-41
2021/03/14 00:08:16;;;;;;;0.70;0.60;;;23.50;44.30;;;;;;5075349;28;20416;-41
2021/03/14 00:10:46;;;;;;;1.00;0.70;;;23.40;44.20;;;;;;5074837;28;20385;-41
2021/03/14 00:13:17;;;;;;;0.50;0.40;;;23.50;44.30;;;;;;5073480;28;20128;-41
2021/03/14 00:15:44;;;;;;;0.98;0.77;;;23.40;44.20;;;;;;5074455;28;20055;-43
2021/03/14 00:18:12;;;;;;;1.00;0.63;;;23.40;44.20;;;;;;5074686;28;20090;-41
2021/03/14 00:20:39;;;;;;;1.00;0.70;;;23.50;44.30;;;;;;5072315;28;20046;-43
2021/03/14 00:23:06;;;;;;;0.55;0.45;;;23.40;44.30;;;;;;5076256;28;20059;-41
2021/03/14 00:25:34;;;;;;;0.45;0.40;;;23.40;44.20;;;;;;5073002;28;20047;-42
2021/03/14 00:28:01;;;;;;;0.88;0.57;;;23.40;44.80;;;;;;5074538;28;20044;-42
2021/03/14 00:30:28;;;;;;;0.47;0.35;;;23.40;44.20;;;;;;5073707;28;20047;-42
2021/03/14 00:32:56;;;;;;;0.50;0.40;;;23.50;44.30;;;;;;5074655;28;20124;-44
2021/03/14 00:35:23;;;;;;;0.77;0.57;;;23.40;44.30;;;;;;5072957;28;20049;-41
2021/03/14 00:37:52;;;;;;;0.63;0.50;;;23.40;44.30;;;;;;5072962;28;20041;-43
2021/03/14 00:40:22;;;;;;;0.88;0.60;;;23.40;44.20;;;;;;5073033;28;20051;-41
2021/03/14 00:42:50;;;;;;;1.20;0.45;;;23.40;44.20;;;;;;5073044;28;20072;-41
2021/03/14 00:45:32;;;;;;;1.45;0.75;;;23.40;44.20;;;;;;5073273;28;20509;-46
2021/03/14 00:48:01;;;;;;;1.00;0.52;;;23.40;44.30;;;;;;5072920;28;20046;-46
2021/03/14 00:50:33;;;;;;;0.73;0.50;;;23.40;44.30;;;;;;5074095;28;20052;-46
2021/03/14 00:53:00;;;;;;;0.65;0.50;;;23.40;44.30;;;;;;5073350;28;20404;-45
2021/03/14 00:55:26;;;;;;;0.70;0.50;;;23.40;44.20;;;;;;5072925;28;20123;-47
2021/03/14 00:57:53;;;;;;;0.60;0.50;;;23.40;44.30;;;;;;5074061;28;20202;-43
2021/03/14 01:00:20;;;;;;;0.63;0.60;;;23.40;44.30;;;;;;5073048;28;20036;-42
2021/03/14 01:02:47;;;;;;;1.05;0.60;;;23.40;44.30;;;;;;5075478;28;20076;-42
2021/03/14 01:05:14;;;;;;;0.95;0.75;;;23.40;44.30;;;;;;5074291;28;20048;-42
2021/03/14 01:07:42;;;;;;;0.90;0.50;;;23.40;44.30;;;;;;5073095;28;20459;-42
2021/03/14 01:10:10;;;;;;;0.98;0.63;;;23.40;44.30;;;;;;5072532;28;20048;-42
2021/03/14 01:12:38;;;;;;;0.70;0.57;;;23.40;44.30;;;;;;5075144;28;20135;-41
2021/03/14 01:15:08;;;;;;;0.60;0.50;;;23.40;44.30;;;;;;5073536;28;20047;-43
2021/03/14 01:17:36;;;;;;;0.82;0.50;;;23.40;44.30;;;;;;5071551;28;20055;-44
2021/03/14 01:20:05;;;;;;;0.88;0.50;;;23.40;44.30;;;;;;5074717;28;20500;-43
2021/03/14 01:22:33;;;;;;;0.75;0.70;;;23.40;44.30;;;;;;5073292;28;20305;-42
2021/03/14 01:25:00;;;;;;;1.15;0.75;;;23.40;44.30;;;;;;5072342;28;20055;-42
2021/03/14 01:27:26;;;;;;;1.17;0.60;;;23.40;44.90;;;;;;5074664;28;20044;-41
2021/03/14 01:29:53;;;;;;;0.57;0.30;;;23.30;44.20;;;;;;5072742;28;20135;-42
2021/03/14 01:32:20;;;;;;;0.80;0.70;;;23.30;44.20;;;;;;5072093;28;20045;-42
2021/03/14 01:34:48;;;;;;;0.68;0.50;;;23.40;44.30;;;;;;5069851;28;20076;-42
2021/03/14 01:37:17;;;;;;;1.00;0.75;;;23.30;44.20;;;;;;5073166;28;20048;-42
2021/03/14 01:39:45;;;;;;;1.02;0.70;;;23.30;44.20;;;;;;5073098;28;20131;-46
2021/03/14 01:42:13;;;;;;;0.63;0.40;;;23.30;44.20;;;;;;5072106;28;20044;-43
2021/03/14 01:44:47;;;;;;;0.70;0.50;;;23.40;44.30;;;;;;5071979;28;20428;-43
2021/03/14 01:47:13;;;;;;;0.80;0.50;;;23.30;44.20;;;;;;5073179;28;20052;-41
2021/03/14 01:49:40;;;;;;;0.60;0.50;;;23.30;44.30;;;;;;5074420;28;20290;-42
2021/03/14 01:52:07;;;;;;;0.98;0.70;;;23.30;44.20;;;;;;5070663;28;20051;-41
2021/03/14 01:54:34;;;;;;;0.65;0.50;;;23.30;44.20;;;;;;5070478;28;20492;-41
2021/03/14 01:57:01;;;;;;;0.95;0.65;;;23.30;44.20;;;;;;5071456;28;20408;-42
2021/03/14 01:59:28;;;;;;;0.93;0.57;;;23.30;44.20;;;;;;5072482;28;20127;-41
2021/03/14 02:01:55;;;;;;;0.40;0.40;;;23.40;44.30;;;;;;5073009;28;20127;-41
2021/03/14 02:04:22;;;;;;;0.80;0.50;;;23.30;44.30;;;;;;5073683;28;20059;-41
2021/03/14 02:06:49;;;;;;;0.98;0.70;;;23.30;44.20;;;;;;5071780;28;20048;-41
2021/03/14 02:09:15;;;;;;;0.50;0.40;;;23.30;44.20;;;;;;5071376;28;20055;-41
2021/03/14 02:11:46;;;;;;;0.82;0.50;;;23.30;44.30;;;;;;5072226;28;20048;-41
2021/03/14 02:14:17;;;;;;;1.13;0.70;;;23.30;44.30;;;;;;5071318;28;20044;-42
2021/03/14 02:16:47;;;;;;;0.63;0.45;;;23.30;44.30;;;;;;5071108;28;20132;-41
2021/03/14 02:19:38;;;;;;;0.60;0.43;;;23.30;44.30;;;;;;5073441;28;20082;-41
2021/03/14 02:22:06;;;;;;;0.60;0.60;;;23.30;44.30;;;;;;5072149;28;20044;-41
2021/03/14 02:24:43;;;;;;;0.75;0.47;;;23.30;44.30;;;;;;5072030;28;20053;-42
2021/03/14 02:27:10;;;;;;;0.75;0.60;;;23.30;44.30;;;;;;5071783;28;20468;-42
2021/03/14 02:29:41;;;;;;;0.50;0.40;;;23.30;44.30;;;;;;5072522;28;20055;-41
2021/03/14 02:32:10;;;;;;;0.68;0.40;;;23.30;44.30;;;;;;5070367;28;20408;-41
2021/03/14 02:34:41;;;;;;;0.55;0.47;;;23.30;44.30;;;;;;5071550;28;20045;-41
2021/03/14 02:37:10;;;;;;;0.68;0.50;;;23.30;44.30;;;;;;5072459;28;20040;-43
2021/03/14 02:39:38;;;;;;;0.55;0.43;;;23.30;44.30;;;;;;5071098;28;20099;-42
2021/03/14 02:42:08;;;;;;;0.85;0.50;;;23.30;44.30;;;;;;5070918;28;20044;-42
2021/03/14 02:44:47;;;;;;;0.70;0.60;;;23.30;44.30;;;;;;5072281;28;20070;-42
2021/03/14 02:47:14;;;;;;;0.47;0.40;;;23.30;44.30;;;;;;5073142;28;20045;-41
2021/03/14 02:50:00;;;;;;;0.50;0.50;;;23.30;44.30;;;;;;5073269;28;20052;-42
2021/03/14 02:52:28;;;;;;;0.50;0.40;;;23.30;44.30;;;;;;5072134;28;20048;-42
2021/03/14 02:54:56;;;;;;;0.73;0.55;;;23.30;44.30;;;;;;5071948;28;20045;-42
2021/03/14 02:57:25;;;;;;;0.70;0.50;;;23.30;44.30;;;;;;5071457;28;20048;-42
2021/03/14 02:59:54;;;;;;;0.45;0.40;;;23.30;44.30;;;;;;5070263;28;20041;-41
2021/03/14 03:02:21;;;;;;;0.70;0.43;;;23.30;44.30;;;;;;5071695;28;20071;-41
2021/03/14 03:04:49;;;;;;;1.10;0.52;;;23.30;44.30;;;;;;5053198;28;20048;-41
2021/03/14 03:07:18;;;;;;;0.82;0.60;;;23.30;44.30;;;;;;5071618;28;20044;-42
2021/03/14 03:09:48;;;;;;;0.63;0.50;;;23.30;44.30;;;;;;5071851;28;20052;-41
2021/03/14 03:12:17;;;;;;;0.90;0.45;;;23.30;44.30;;;;;;5071932;28;20052;-41
2021/03/14 03:14:44;;;;;;;0.70;0.60;;;23.30;44.30;;;;;;5069815;28;20481;-42
2021/03/14 03:17:11;;;;;;;0.80;0.50;;;23.30;44.30;;;;;;5072007;28;20047;-41
2021/03/14 03:19:41;;;;;;;0.82;0.55;;;23.30;44.30;;;;;;5070209;28;20151;-42
2021/03/14 03:22:09;;;;;;;0.75;0.50;;;23.30;44.30;;;;;;5072691;28;20511;-42
2021/03/14 03:24:36;;;;;;;0.82;0.50;;;23.30;44.30;;;;;;5070410;28;20071;-41
2021/03/14 03:27:02;;;;;;;0.77;0.47;;;23.20;44.30;;;;;;5072425;28;20060;-42
2021/03/14 03:29:30;;;;;;;0.95;0.70;;;23.20;44.30;;;;;;5071228;28;20044;-42
2021/03/14 03:31:56;;;;;;;0.85;0.60;;;23.20;44.30;;;;;;5070540;28;20459;-42
2021/03/14 03:34:24;;;;;;;0.57;0.47;;;23.20;44.30;;;;;;5071237;28;20047;-41
2021/03/14 03:36:50;;;;;;;0.55;0.50;;;23.20;44.30;;;;;;5053808;28;20052;-42
2021/03/14 03:39:17;;;;;;;0.63;0.40;;;23.20;44.30;;;;;;5071768;28;20142;-42
2021/03/14 03:41:58;;;;;;;0.50;0.40;;;23.20;44.30;;;;;;5074577;28;20044;-42
2021/03/14 03:44:26;;;;;;;0.70;0.50;;;23.20;44.30;;;;;;5075881;28;20478;-42
2021/03/14 03:46:58;;;;;;;0.45;0.45;;;23.20;44.30;;;;;;5074472;28;20420;-43
2021/03/14 03:49:32;;;;;;;0.77;0.50;;;23.20;44.30;;;;;;5075038;28;20048;-41
2021/03/14 03:51:59;;;;;;;;;;;23.30;44.40;;;;;;5076140;28;20055;-42
2021/03/14 03:54:29;;;;;;;0.73;0.50;;;23.20;44.30;;;;;;5075244;28;19926;-47
2021/03/14 03:56:57;;;;;;;0.45;0.30;;;23.20;44.30;;;;;;5073788;28;20052;-43
2021/03/14 03:59:26;;;;;;;0.50;0.40;;;23.20;44.30;;;;;;5073910;28;20045;-44
2021/03/14 04:01:54;;;;;;;0.47;0.40;;;23.20;44.30;;;;;;5075267;28;20047;-42
2021/03/14 04:04:24;;;;;;;0.85;0.73;;;23.20;44.30;;;;;;5073970;28;20095;-42
2021/03/14 04:06:53;;;;;;;0.60;0.47;;;23.20;44.30;;;;;;5075238;28;20052;-41
2021/03/14 04:09:21;;;;;;;0.82;0.45;;;23.20;44.30;;;;;;5076633;28;20050;-42
2021/03/14 04:11:49;;;;;;;0.45;0.40;;;23.20;44.30;;;;;;5074728;28;20725;-42
2021/03/14 04:14:17;;;;;;;0.60;0.43;;;23.20;44.30;;;;;;5074403;28;20120;-41
2021/03/14 04:16:45;;;;;;;0.98;0.57;;;23.20;44.30;;;;;;5074433;28;20042;-44
2021/03/14 04:19:15;;;;;;;0.70;0.60;;;23.20;44.30;;;;;;5075060;28;20072;-41
2021/03/14 04:21:42;;;;;;;0.98;0.70;;;23.20;44.30;;;;;;5073628;28;20131;-41
2021/03/14 04:24:15;;;;;;;0.68;0.40;;;23.20;44.30;;;;;;5073182;28;20052;-41
2021/03/14 04:26:45;;;;;;;0.50;0.50;;;23.20;44.30;;;;;;5074930;28;20084;-42
2021/03/14 04:29:13;;;;;;;0.73;0.50;;;23.20;44.30;;;;;;5074301;28;20081;-43
2021/03/14 04:31:44;;;;;;;0.50;0.40;;;23.20;44.30;;;;;;5073197;28;20135;-42
2021/03/14 04:34:14;;;;;;;0.70;0.43;;;23.20;44.30;;;;;;5073806;28;20068;-42
2021/03/14 04:36:42;;;;;;;0.43;0.40;;;23.20;44.30;;;;;;5071820;28;20041;-42
2021/03/14 04:39:10;;;;;;;0.70;0.50;;;23.20;44.30;;;;;;5074657;28;20048;-42
2021/03/14 04:41:38;;;;;;;0.68;0.52;;;23.20;44.30;;;;;;5073951;28;20556;-46
2021/03/14 04:44:07;;;;;;;0.50;0.40;;;23.20;44.30;;;;;;5073393;28;20048;-44
2021/03/14 04:46:34;;;;;;;0.70;0.52;;;23.20;44.30;;;;;;5074441;28;20055;-48
2021/03/14 04:49:01;;;;;;;0.88;0.70;;;23.20;44.30;;;;;;5073141;28;20049;-44
2021/03/14 04:51:36;;;;;;;0.80;0.57;;;23.20;44.90;;;;;;5072795;28;20526;-42
2021/03/14 04:54:04;;;;;;;0.40;0.40;;;23.20;44.30;;;;;;5072684;28;20052;-47
2021/03/14 04:56:32;;;;;;;0.57;0.50;;;23.20;44.30;;;;;;5075695;28;20156;-42
2021/03/14 04:58:59;;;;;;;0.60;0.50;;;23.20;44.30;;;;;;5075423;28;20040;-42
2021/03/14 05:01:27;;;;;;;0.40;0.40;;;23.20;44.30;;;;;;5074145;28;20091;-42
2021/03/14 05:03:56;;;;;;;0.60;0.40;;;23.20;44.30;;;;;;5074235;28;20045;-41
2021/03/14 05:06:24;;;;;;;0.40;0.30;;;23.20;44.30;;;;;;5072741;28;20048;-43
2021/03/14 05:08:52;;;;;;;0.52;0.35;;;23.20;44.30;;;;;;5072764;28;20115;-42
2021/03/14 05:11:20;;;;;;;0.40;0.30;;;23.20;44.30;;;;;;5074513;28;20080;-43
2021/03/14 05:13:49;;;;;;;1.45;0.50;;;23.20;44.30;;;;;;5073050;28;20411;-42
2021/03/14 05:16:17;;;;;;;0.80;0.40;;;23.20;44.30;;;;;;5074095;28;20124;-42
2021/03/14 05:18:46;;;;;;;0.57;0.40;;;23.20;44.30;;;;;;5072468;28;20449;-43
2021/03/14 05:21:14;;;;;;;0.50;0.40;;;23.20;44.30;;;;;;5074742;28;20091;-42
2021/03/14 05:23:41;;;;;;;1.25;0.50;;;23.10;44.30;;;;;;5074669;28;20068;-42
2021/03/14 05:26:13;;;;;;;0.63;0.50;;;23.10;44.30;;;;;;5072067;28;20050;-41
2021/03/14 05:28:41;;;;;;;0.75;0.40;;;23.10;44.30;;;;;;5073376;28;20083;-41
2021/03/14 05:31:28;;;;;;;0.70;0.40;;;23.10;44.20;;;;;;5072471;28;20404;-42
2021/03/14 05:33:57;;;;;;;0.60;0.40;;;23.10;44.30;;;;;;5071305;28;20051;-43
2021/03/14 05:36:25;;;;;;;0.45;0.40;;;23.10;44.30;;;;;;5072432;28;20119;-43
2021/03/14 05:38:53;;;;;;;0.30;0.30;;;23.10;44.30;;;;;;5073278;28;20052;-42
2021/03/14 05:41:20;;;;;;;0.60;0.40;;;23.10;44.30;;;;;;5072145;28;20040;-42
2021/03/14 05:43:48;;;;;;;0.52;0.45;;;23.10;44.30;;;;;;5074454;28;20047;-41
2021/03/14 05:46:16;;;;;;;0.82;0.45;;;23.10;44.30;;;;;;5073398;28;20050;-42
2021/03/14 05:48:44;;;;;;;0.50;0.32;;;23.10;44.20;;;;;;5072130;28;20512;-43
2021/03/14 05:51:34;;;;;;;0.50;0.40;;;23.10;44.30;;;;;;5073633;28;20048;-42
2021/03/14 05:54:01;;;;;;;0.50;0.50;;;23.10;44.30;;;;;;5073116;28;20051;-42
2021/03/14 05:56:31;;;;;;;0.50;0.30;;;23.20;44.30;;;;;;5074007;28;20045;-42
2021/03/14 05:58:58;;;;;;;0.70;0.50;;;23.10;44.30;;;;;;5072818;28;20492;-41
2021/03/14 06:01:29;;;;;;;0.68;0.40;;;23.10;44.30;;;;;;5073763;28;20052;-42
2021/03/14 06:03:58;;;;;;;0.43;0.40;;;23.10;44.30;;;;;;5072294;28;20492;-42
2021/03/14 06:06:25;;;;;;;0.95;0.47;;;23.10;44.30;;;;;;5073299;28;20454;-43
2021/03/14 06:08:53;;;;;;;0.80;0.55;;;23.10;44.20;;;;;;5071432;28;20059;-42
2021/03/14 06:11:20;;;;;;;0.63;0.55;;;23.10;44.30;;;;;;5071363;28;20051;-44
2021/03/14 06:13:50;;;;;;;0.50;0.45;;;23.10;44.20;;;;;;5072529;28;20049;-47
2021/03/14 06:16:19;;;;;;;0.85;0.60;;;23.10;44.20;;;;;;5074159;28;20048;-43
2021/03/14 06:18:46;;;;;;;1.10;0.50;;;23.10;44.20;;;;;;5072532;28;20045;-41
2021/03/14 06:21:23;;;;;;;0.40;0.30;;;23.10;44.20;;;;;;5072551;28;20480;-42
2021/03/14 06:24:10;;;;;;;0.70;0.40;;;23.10;44.20;;;;;;5072620;28;20041;-42
2021/03/14 06:26:45;;;;;;;0.50;0.40;;;23.10;44.20;;;;;;5072051;28;20048;-43
2021/03/14 06:29:18;;;;;;;0.50;0.50;;;23.10;44.20;;;;;;5071741;28;20040;-43
2021/03/14 06:31:45;;;;;;;0.77;0.50;;;23.20;44.30;;;;;;5070293;28;20119;-42
2021/03/14 06:34:30;;;;;;;0.57;0.40;;;23.20;44.30;;;;;;5072231;28;20083;-43
2021/03/14 06:37:11;;;;;;;0.32;0.30;;;23.20;44.30;;;;;;5072614;28;20040;-41
2021/03/14 06:39:41;;;;;;;0.30;0.28;;;23.20;44.30;;;;;;5071778;28;20123;-42
2021/03/14 06:42:08;;;;;;;0.40;0.32;;;23.10;44.20;;;;;;5072599;28;20059;-42
2021/03/14 06:45:01;;;;;;;0.43;0.32;;;23.10;44.20;;;;;;5072290;28;20420;-42
2021/03/14 06:47:48;;;;;;;0.45;0.40;;;23.10;44.20;;;;;;5070705;28;20136;-42
2021/03/14 06:50:41;;;;;;;0.52;0.47;;;23.10;44.20;;;;;;5070682;28;20052;-42
2021/03/14 06:53:22;;;;;;;0.40;0.30;;;23.10;44.20;;;;;;5071687;28;20135;-42
2021/03/14 06:55:52;;;;;;;0.60;0.45;;;23.10;44.20;;;;;;5070517;28;20052;-42
2021/03/14 06:58:19;;;;;;;0.60;0.40;;;23.10;44.20;;;;;;5070483;28;20488;-45
2021/03/14 07:01:11;;;;;;;0.50;0.40;;;23.20;44.30;;;;;;5070309;28;20051;-43
2021/03/14 07:03:42;;;;;;;0.80;0.50;;;23.10;44.20;;;;;;5070152;28;20462;-44
2021/03/14 07:06:18;;;;;;;0.43;0.38;;;23.10;44.20;;;;;;5071825;28;20135;-44
2021/03/14 07:08:47;;;;;;;0.40;0.32;;;23.20;44.30;;;;;;5072909;28;20564;-44
2021/03/14 07:11:37;;;;;;;1.42;0.47;;;23.20;44.30;;;;;;5070398;28;20052;-42
2021/03/14 07:14:11;;;;;;;0.40;0.40;;;23.10;44.20;;;;;;5071433;28;20047;-44
2021/03/14 07:16:50;;;;;;;0.47;0.30;;;23.20;44.30;;;;;;5071399;28;20040;-46
2021/03/14 07:19:28;;;;;;;0.30;0.20;;;23.20;44.30;;;;;;5073238;28;20052;-42
2021/03/14 07:22:05;;;;;;;0.35;0.30;;;23.20;44.30;;;;;;5071334;28;20040;-42
2021/03/14 07:24:40;;;;;;;0.50;0.30;;;23.20;44.30;;;;;;5071838;28;20467;-44
2021/03/14 07:27:11;;;;;;;0.52;0.35;;;23.20;44.30;;;;;;5070918;28;20052;-43
2021/03/14 07:29:40;;;;;;;0.50;0.40;;;23.20;44.20;;;;;;5070038;28;20045;-42
2021/03/14 07:32:08;;;;;;;0.38;0.30;;;23.20;44.20;;;;;;5070727;28;20468;-46
2021/03/14 07:34:35;;;;;;;0.47;0.30;;;23.20;44.20;;;;;;5071223;28;20090;-42
2021/03/14 07:37:03;;;;;;;0.68;0.30;;;23.20;44.20;;;;;;5071648;28;20044;-41
2021/03/14 07:39:30;;;;;;;0.52;0.30;;;23.20;44.20;;;;;;5083444;28;20405;-42
2021/03/14 07:41:57;;;;;;;0.40;0.30;;;23.20;44.20;;;;;;5086554;28;20048;-42
2021/03/14 07:44:26;;;;;;;0.30;0.30;;;23.20;44.20;;;;;;5071245;28;20050;-42
2021/03/14 07:46:54;;;;;;;0.50;0.40;;;23.20;44.20;;;;;;5071605;28;20048;-43
2021/03/14 07:49:27;;;;;;;0.30;0.20;;;23.20;44.10;;;;;;5068696;28;20100;-45
2021/03/14 07:51:57;;;;;;;0.50;0.40;;;23.20;44.10;;;;;;5071174;28;20055;-44
2021/03/14 07:54:50;;;;;;;0.70;0.45;;;23.20;44.10;;;;;;5069984;28;20131;-43
2021/03/14 07:57:22;;;;;;;0.40;0.40;;;23.20;44.80;;;;;;5071533;28;20048;-42
2021/03/14 07:59:49;;;;;;;0.30;0.30;;;23.20;44.10;;;;;;5071842;28;20489;-42
2021/03/14 08:02:19;;;;;;;0.50;0.30;;;23.20;44.10;;;;;;5072387;28;20044;-44
2021/03/14 08:04:58;;;;;;;0.40;0.30;;;23.20;44.10;;;;;;5070337;28;20423;-44
2021/03/14 08:07:41;;;;;;;0.60;0.50;;;23.20;44.10;;;;;;5071041;28;20056;-42
2021/03/14 08:10:11;;;;;;;0.80;0.35;;;23.30;44.20;;;;;;5069748;28;20101;-43
2021/03/14 08:12:42;;;;;;;0.45;0.30;;;23.30;44.10;;;;;;5071044;28;20068;-42
2021/03/14 08:15:25;;;;;;;0.50;0.40;;;23.20;44.10;;;;;;5070113;28;20140;-45
2021/03/14 08:17:54;;;;;;;0.60;0.30;;;23.20;44.10;;;;;;5070172;28;20135;-42
2021/03/14 08:20:41;;;;;;;0.82;0.50;;;23.20;44.10;;;;;;5071804;28;20110;-41
2021/03/14 08:23:11;;;;;;;0.40;0.40;;;23.20;44.10;;;;;;5068390;28;20115;-42
2021/03/14 08:25:41;;;;;;;0.40;0.30;;;23.20;44.10;;;;;;5071520;28;20052;-42
2021/03/14 08:28:30;;;;;;;0.30;0.30;;;23.20;44.10;;;;;;5074637;28;20057;-42
2021/03/14 08:31:01;;;;;;;0.40;0.30;;;23.20;44.10;;;;;;5073069;28;20045;-41
2021/03/14 08:33:38;;;;;;;0.38;0.30;;;23.20;44.10;;;;;;5073068;28;20071;-42
2021/03/14 08:36:11;;;;;;;0.40;0.40;;;23.30;44.10;;;;;;5073529;28;20057;-42
2021/03/14 08:38:48;;;;;;;0.47;0.40;;;23.30;44.10;;;;;;5072939;28;20044;-41
2021/03/14 08:41:23;;;;;;;0.68;0.50;;;23.20;44.00;;;;;;5074492;28;20130;-42
2021/03/14 08:43:59;;;;;;;0.30;0.20;;;23.30;44.10;;;;;;5073068;28;20055;-42
2021/03/14 08:46:49;;;;;;;0.30;0.25;;;23.30;44.10;;;;;;5074722;28;20057;-42
2021/03/14 08:49:19;;;;;;;0.43;0.30;;;23.30;44.10;;;;;;5067806;28;20060;-41
2021/03/14 08:51:47;;;;;;;0.55;0.40;;;23.30;44.10;;;;;;5073338;28;20056;-43
2021/03/14 08:54:48;;;;;;;0.43;0.40;;;23.30;44.10;;;;;;5072691;28;20045;-42
2021/03/14 08:57:15;;;;;;;;;;;23.30;44.10;;;;;;5072747;28;20048;-43
2021/03/14 09:00:02;;;;;;;0.20;0.20;;;23.30;44.10;;;;;;5072351;28;19924;-41
2021/03/14 09:02:35;;;;;;;0.57;0.30;;;23.30;44.10;;;;;;5073046;28;20051;-44
2021/03/14 09:05:16;;;;;;;0.63;0.50;;;23.30;44.10;;;;;;5072449;28;20052;-42
2021/03/14 09:07:43;;;;;;;0.40;0.35;;;23.30;44.10;;;;;;5072808;28;20423;-44
2021/03/14 09:10:14;;;;;;;0.57;0.32;;;23.30;44.10;;;;;;5072399;28;20052;-42
2021/03/14 09:12:42;;;;;;;0.25;0.25;;;23.30;44.10;;;;;;5072506;28;20131;-42
2021/03/14 09:15:12;;;;;;;0.20;0.20;;;23.30;44.10;;;;;;5073599;28;20045;-42
2021/03/14 09:17:42;;;;;;;0.28;0.25;;;23.30;44.10;;;;;;5073669;28;20553;-42
2021/03/14 09:20:23;;;;;;;0.50;0.40;;;23.30;44.10;;;;;;5073741;28;20044;-44
2021/03/14 09:22:49;;;;;;;0.40;0.30;;;23.30;44.10;;;;;;5073556;28;20055;-42
2021/03/14 09:25:17;;;;;;;0.80;0.40;;;23.30;44.10;;;;;;5072574;28;20055;-42
2021/03/14 09:27:46;;;;;;;0.50;0.30;;;23.30;44.10;;;;;;5074800;28;20052;-43
2021/03/14 09:30:19;;;;;;;0.40;0.28;;;23.30;44.10;;;;;;5073463;28;20068;-44
2021/03/14 09:32:51;;;;;;;1.02;0.30;;;23.30;44.10;;;;;;5072481;28;20120;-43
2021/03/14 09:35:28;;;;;;;0.80;0.40;;;23.30;44.10;;;;;;5072931;28;20485;-47
2021/03/14 09:37:58;;;;;;;0.52;0.30;;;23.30;44.10;;;;;;5071339;28;20045;-43
2021/03/14 09:40:32;;;;;;;0.28;0.20;;;23.30;44.10;;;;;;5071187;28;20052;-44
2021/03/14 09:43:20;;;;;;;0.47;0.30;;;23.30;44.10;;;;;;5072378;28;20048;-43
2021/03/14 09:45:56;;;;;;;0.40;0.30;;;23.30;44.10;;;;;;5072385;28;20471;-44
2021/03/14 09:48:34;;;;;;;0.25;0.22;;;23.30;44.10;;;;;;5074160;28;20561;-46
2021/03/14 09:51:07;;;;;;;0.35;0.35;;;23.30;44.10;;;;;;5070642;28;20048;-43
2021/03/14 09:53:39;;;;;;;0.22;0.20;;;23.30;44.10;;;;;;5072419;28;20666;-44
2021/03/14 09:56:11;;;;;;;0.50;0.43;;;23.30;44.10;;;;;;5074087;28;20050;-41
2021/03/14 09:58:38;;;;;;;0.45;0.30;;;23.30;44.10;;;;;;5071720;28;20044;-41
2021/03/14 10:01:07;;;;;;;0.47;0.30;;;23.30;44.10;;;;;;5071754;28;20067;-49
2021/03/14 10:03:34;;;;;;;0.65;0.30;;;23.30;44.10;;;;;;5072864;28;20048;-44
2021/03/14 10:06:07;;;;;;;0.30;0.20;;;23.30;44.10;;;;;;5071298;28;20051;-45
2021/03/14 10:08:36;;;;;;;0.30;0.20;;;23.30;44.10;;;;;;5072929;28;20052;-43
2021/03/14 10:11:11;;;;;;;0.50;0.40;;;23.30;44.10;;;;;;5074334;28;20091;-41
2021/03/14 10:13:38;;;;;;;1.02;0.50;;;23.30;44.10;;;;;;5073430;28;20059;-43
2021/03/14 10:16:11;;;;;;;0.55;0.30;;;23.30;44.10;;;;;;5070853;28;20131;-45
2021/03/14 10:18:42;;;;;;;0.70;0.50;;;23.30;44.10;;;;;;5072498;28;20041;-42
2021/03/14 10:21:27;;;;;;;0.70;0.40;;;23.30;44.10;;;;;;5071147;28;20047;-47
2021/03/14 10:24:24;;;;;;;0.43;0.35;;;23.30;44.30;;;;;;5071127;28;20086;-46
2021/03/14 10:27:01;;;;;;;0.85;0.45;;;23.30;44.20;;;;;;5071316;28;20063;-47
2021/03/14 10:29:36;;;;;;;1.45;0.30;;;23.30;44.20;;;;;;5069928;28;20058;-43
2021/03/14 10:32:06;;;;;;;0.35;0.22;;;23.30;44.30;;;;;;5069456;28;20570;-44
2021/03/14 10:34:33;;;;;;;0.43;0.22;;;23.30;44.30;;;;;;5063404;28;20053;-47
2021/03/14 10:37:00;;;;;;;3.83;0.47;;;23.30;44.30;;;;;;5072119;28;20528;-45
2021/03/14 10:39:36;;;;;;;1.98;0.40;;;23.30;44.30;;;;;;5069925;28;20511;-43
2021/03/14 10:42:09;;;;;;;0.95;0.35;;;23.30;44.40;;;;;;5070900;28;20041;-44
2021/03/14 10:44:41;;;;;;;0.93;0.40;;;23.40;44.50;;;;;;5070249;28;20070;-45
2021/03/14 10:47:29;;;;;;;3.08;0.40;;;23.40;44.50;;;;;;5053966;28;20051;-47
2021/03/14 10:50:14;;;;;;;0.88;0.50;;;23.40;44.50;;;;;;5070235;28;20052;-43
2021/03/14 10:53:05;;;;;;;2.23;0.33;;;23.40;44.50;;;;;;5071461;28;20076;-43
2021/03/14 10:55:47;;;;;;;1.60;0.50;;;23.40;44.40;;;;;;5070924;28;20044;-44
2021/03/14 10:58:23;;;;;;;4.15;0.50;;;23.40;44.50;;;;;;5071085;28;20090;-44
2021/03/14 11:00:59;;;;;;;2.08;0.50;;;23.40;44.40;;;;;;5054096;28;20051;-41
2021/03/14 11:03:41;;;;;;;3.35;0.90;;;23.40;44.50;;;;;;5071600;28;20494;-44
2021/03/14 11:06:24;;;;;;;3.08;0.63;;;23.40;44.50;;;;;;5070911;28;20526;-44
2021/03/14 11:08:55;;;;;;;4.32;0.60;;;23.50;44.60;;;;;;5071120;28;20498;-43
2021/03/14 11:11:48;;;;;;;4.07;0.75;;;23.50;44.60;;;;;;5070049;28;20053;-43
2021/03/14 11:14:25;;;;;;;4.95;0.40;;;23.50;44.60;;;;;;5069752;28;20389;-43
2021/03/14 11:17:12;;;;;;;2.65;0.70;;;23.50;44.50;;;;;;5072301;28;20489;-43
2021/03/14 11:19:50;;;;;;;2.95;0.70;;;23.50;44.50;;;;;;5070914;28;20048;-42
2021/03/14 11:22:23;;;;;;;5.15;0.98;;;23.50;44.50;;;;;;5070768;28;20405;-44
2021/03/14 11:24:52;;;;;;;4.20;0.90;;;23.50;44.50;;;;;;5071050;28;20071;-43
2021/03/14 11:27:20;;;;;;;3.33;0.60;;;23.50;44.50;;;;;;5072091;28;20160;-42
2021/03/14 11:29:47;;;;;;;1.35;0.50;;;23.50;44.50;;;;;;5069617;28;20040;-43
2021/03/14 11:32:15;;;;;;;5.65;0.77;;;23.50;44.50;;;;;;5067617;28;20554;-43
2021/03/14 11:34:45;;;;;;;1.20;0.60;;;23.50;44.50;;;;;;5071308;28;20095;-43
2021/03/14 11:37:14;;;;;;;2.20;0.68;;;23.50;44.50;;;;;;5069684;28;20098;-43
2021/03/14 11:39:44;;;;;;;4.07;0.90;;;23.50;44.50;;;;;;5069408;28;20055;-42
2021/03/14 11:42:17;;;;;;;1.85;0.60;;;23.50;44.40;;;;;;5069748;28;20048;-43
2021/03/14 11:44:50;;;;;;;3.90;1.00;;;23.50;44.50;;;;;;5069811;28;20127;-42
2021/03/14 11:47:19;;;;;;;2.05;0.75;;;23.50;44.40;;;;;;5067875;28;20052;-43
2021/03/14 11:49:47;;;;;;;3.72;0.98;;;23.50;44.40;;;;;;5071038;28;20049;-41
2021/03/14 11:52:14;;;;;;;2.33;1.00;;;23.50;44.40;;;;;;5053356;28;20453;-41
2021/03/14 11:54:42;;;;;;;4.25;0.90;;;23.50;44.40;;;;;;5070054;28;20068;-41
2021/03/14 11:57:11;;;;;;;6.32;1.00;;;23.50;44.30;;;;;;5072594;28;20049;-41
2021/03/14 11:59:38;;;;;;;1.23;0.55;;;23.50;44.30;;;;;;5071521;28;20131;-41
2021/03/14 12:02:06;;;;;;;2.60;1.17;;;23.50;44.30;;;;;;5075159;28;20044;-42
2021/03/14 12:04:33;;;;;;;1.60;0.88;;;23.50;44.30;;;;;;5073656;28;20053;-43
2021/03/14 12:07:00;;;;;;;2.67;0.70;;;23.50;44.30;;;;;;5075206;28;20087;-41
2021/03/14 12:09:28;;;;;;;3.38;0.80;;;23.50;44.30;;;;;;5074635;28;20132;-42
2021/03/14 12:11:55;;;;;;;2.78;0.80;;;23.50;44.30;;;;;;5075114;28;20049;-42
2021/03/14 12:14:22;;;;;;;3.45;1.05;;;23.50;44.30;;;;;;5074421;28;20048;-42
2021/03/14 12:16:49;;;;;;;2.53;1.20;;;23.50;44.30;;;;;;5073582;28;20062;-42
2021/03/14 12:19:16;;;;;;;2.38;1.00;;;23.50;44.30;;;;;;5074962;28;20041;-41
2021/03/14 12:21:43;;;;;;;2.22;0.70;;;23.50;44.30;;;;;;5074523;28;20048;-42
2021/03/14 12:24:10;;;;;;;3.58;0.90;;;23.50;44.20;;;;;;5074619;28;20125;-41
2021/03/14 12:26:36;;;;;;;1.77;0.93;;;23.50;44.20;;;;;;5074076;28;20049;-41
2021/03/14 12:29:06;;;;;;;2.55;1.08;;;23.50;44.20;;;;;;5074572;28;20048;-41
2021/03/14 12:31:33;;;;;;;2.95;1.00;;;23.50;44.20;;;;;;5073144;28;20077;-41
2021/03/14 12:34:00;;;;;;;2.10;0.90;;;23.50;44.20;;;;;;5073277;28;20048;-41
2021/03/14 12:36:27;;;;;;;3.17;1.10;;;23.50;44.20;;;;;;5074317;28;20044;-43
2021/03/14 12:38:54;;;;;;;3.53;1.02;;;23.50;44.20;;;;;;5074382;28;20044;-43
2021/03/14 12:41:21;;;;;;;2.78;0.68;;;23.50;44.30;;;;;;5074145;28;20052;-42
2021/03/14 12:43:47;;;;;;;3.60;1.13;;;23.50;44.20;;;;;;5072891;28;20409;-41
2021/03/14 12:46:15;;;;;;;3.03;1.17;;;23.50;44.20;;;;;;5075730;28;20131;-41
2021/03/14 12:48:42;;;;;;;1.98;1.00;;;23.50;44.20;;;;;;5075686;28;20105;-41
2021/03/14 12:51:09;;;;;;;5.05;1.25;;;23.50;44.20;;;;;;5072901;28;20048;-41
2021/03/14 12:53:36;;;;;;;1.85;0.73;;;23.50;44.20;;;;;;5073753;28;20515;-41
2021/03/14 12:56:03;;;;;;;2.67;0.90;;;23.50;44.20;;;;;;5074018;28;20080;-44
2021/03/14 12:58:29;;;;;;;2.42;0.93;;;23.50;44.20;;;;;;5073796;28;20552;-41
2021/03/14 13:00:56;;;;;;;1.77;1.08;;;23.50;44.20;;;;;;5074368;28;20119;-41
2021/03/14 13:03:23;;;;;;;3.35;1.17;;;23.50;44.20;;;;;;5072652;28;20481;-41
2021/03/14 13:05:50;;;;;;;7.55;1.10;;;23.50;44.20;;;;;;5072686;28;20135;-42
2021/03/14 13:08:18;;;;;;;3.05;1.17;;;23.50;44.20;;;;;;5073955;28;20135;-42